Time;durP1;ratioP1;P1;durP2;ratioP2;P2;SDS_P1;SDS_P2;PMS_P1;PMS_P2;Temp;Humidity;BMP_temperature;BMP_pressure;BME280_temperature;BME280_humidity;BME280_pressure;Samples;Min_cycle;Max_cycle;Signal;HPM_P1;HPM_P2
2022/09/11 00:00:34;;;;;;;3.20;2.60;;;;;;;13.61;97.46;95675.66;4979047;28;20626;-79
2022/09/11 00:03:00;;;;;;;4.03;2.80;;;;;;;13.60;98.05;95680.06;4980083;28;20200;-80
2022/09/11 00:05:25;;;;;;;3.93;2.30;;;;;;;13.68;97.36;95681.84;4978012;28;20198;-79
2022/09/11 00:07:51;;;;;;;4.53;2.30;;;;;;;13.73;97.08;95676.16;4980862;28;20306;-81
2022/09/11 00:10:17;;;;;;;4.37;2.23;;;;;;;13.72;97.54;95672.72;4992463;28;20597;-80
2022/09/11 00:12:42;;;;;;;4.60;2.42;;;;;;;13.73;97.53;95663.09;4995864;28;20222;-80
2022/09/11 00:15:08;;;;;;;6.43;2.57;;;;;;;13.72;97.57;95671.91;4981004;28;20206;-80
2022/09/11 00:17:33;;;;;;;6.40;2.57;;;;;;;13.75;97.23;95677.59;4983033;28;20203;-80
2022/09/11 00:20:00;;;;;;;4.30;2.50;;;;;;;13.76;97.25;95671.41;4978954;28;20659;-80
2022/09/11 00:22:26;;;;;;;5.67;2.63;;;;;;;13.75;97.56;95680.22;4970331;28;20674;-79
2022/09/11 00:24:51;;;;;;;4.85;2.88;;;;;;;13.73;98.19;95669.13;4983062;28;20176;-80
2022/09/11 00:27:16;;;;;;;3.83;2.90;;;;;;;13.72;98.69;95674.53;4988199;28;20218;-80
2022/09/11 00:29:42;;;;;;;5.27;2.60;;;;;;;13.84;97.97;95671.41;4975633;28;20279;-81
2022/09/11 00:32:08;;;;;;;6.53;2.90;;;;;;;13.78;98.62;95679.91;4979850;28;20199;-81
2022/09/11 00:34:33;;;;;;;4.67;2.80;;;;;;;13.78;98.88;95672.09;4978129;28;20770;-80
2022/09/11 00:36:59;;;;;;;5.10;3.80;;;;;;;13.81;99.18;95674.34;4978829;28;20215;-79
2022/09/11 00:39:24;;;;;;;3.93;3.50;;;;;;;13.76;99.44;95674.00;4983009;28;21026;-80
2022/09/11 00:41:50;;;;;;;5.60;3.72;;;;;;;13.76;99.81;95674.00;4997742;28;20191;-80
2022/09/11 00:44:18;;;;;;;8.47;3.70;;;;;;;13.71;100.00;95665.88;4977020;28;20191;-80
2022/09/11 00:46:46;;;;;;;4.63;3.45;;;;;;;13.76;100.00;95676.63;5004417;28;20207;-80
2022/09/11 00:49:23;;;;;;;5.37;3.40;;;;;;;13.80;100.00;95677.13;4977856;28;20299;-81
2022/09/11 00:51:52;;;;;;;5.63;3.50;;;;;;;13.72;100.00;95680.56;4989453;28;20194;-82
2022/09/11 00:54:20;;;;;;;4.00;3.60;;;;;;;13.72;100.00;95675.34;4976946;28;21132;-81
2022/09/11 00:56:46;;;;;;;6.77;3.80;;;;;;;13.70;100.00;95679.91;4965835;28;20220;-81
2022/09/11 00:59:12;;;;;;;6.18;4.05;;;;;;;13.74;100.00;95672.56;4977715;28;20184;-81
2022/09/11 01:01:37;;;;;;;6.93;3.87;;;;;;;13.84;100.00;95674.00;4978027;28;20188;-80
2022/09/11 01:04:04;;;;;;;7.20;3.87;;;;;;;13.74;100.00;95669.94;4993945;28;20204;-80
2022/09/11 01:06:30;;;;;;;8.57;5.47;;;;;;;13.78;100.00;95677.31;4988176;28;20195;-82
2022/09/11 01:08:58;;;;;;;6.72;4.45;;;;;;;13.81;100.00;95665.72;4980339;28;20274;-80
2022/09/11 01:11:54;;;;;;;9.23;5.68;;;;;;;13.93;100.00;95668.78;4980295;28;20192;-81
2022/09/11 01:14:39;;;;;;;7.28;4.68;;;;;;;13.87;100.00;95678.13;4993867;28;20283;-81
2022/09/11 01:17:28;;;;;;;8.80;4.70;;;;;;;13.89;100.00;95679.56;4981627;28;20266;-80
2022/09/11 01:20:11;;;;;;;7.77;5.13;;;;;;;13.83;100.00;95674.19;4970221;28;20192;-80
2022/09/11 01:22:42;;;;;;;6.90;5.10;;;;;;;13.77;100.00;95670.41;5003611;28;20179;-80
2022/09/11 01:25:22;;;;;;;8.83;5.90;;;;;;;13.79;100.00;95678.94;4993711;28;20226;-81
2022/09/11 01:27:49;;;;;;;7.82;5.30;;;;;;;13.82;100.00;95681.19;4994868;28;20207;-82
2022/09/11 01:30:20;;;;;;;9.13;5.95;;;;;;;13.77;100.00;95673.03;4978825;28;20302;-80
2022/09/11 01:33:16;;;;;;;6.15;4.97;;;;;;;13.84;100.00;95676.63;4968188;28;20295;-82
2022/09/11 01:36:03;;;;;;;6.37;5.60;;;;;;;13.83;100.00;95676.78;4987213;28;20184;-80
2022/09/11 01:38:36;;;;;;;8.00;5.47;;;;;;;13.73;100.00;95673.53;4998291;28;20257;-80
2022/09/11 01:41:07;;;;;;;9.20;5.90;;;;;;;13.73;100.00;95676.16;4977373;28;20199;-81
2022/09/11 01:43:36;;;;;;;11.98;5.93;;;;;;;13.73;100.00;95679.56;4977129;28;20196;-81
2022/09/11 01:46:03;;;;;;;9.60;5.55;;;;;;;13.75;100.00;95677.59;4987949;28;20204;-81
2022/09/11 01:48:34;;;;;;;9.03;5.20;;;;;;;13.75;100.00;95674.19;4994224;28;20224;-81
2022/09/11 01:51:00;;;;;;;6.65;5.45;;;;;;;13.74;100.00;95673.38;4978748;28;20278;-81
2022/09/11 01:53:31;;;;;;;7.32;5.28;;;;;;;13.82;100.00;95675.97;4979228;28;20199;-82
2022/09/11 01:56:08;;;;;;;6.35;4.82;;;;;;;13.82;100.00;95673.38;4994864;28;20198;-82
2022/09/11 01:58:35;;;;;;;8.57;4.83;;;;;;;13.85;100.00;95673.03;4990284;28;20217;-80
2022/09/11 02:01:04;;;;;;;7.15;4.75;;;;;;;13.80;100.00;95675.34;4979633;28;20183;-82
2022/09/11 02:03:38;;;;;;;6.13;5.30;;;;;;;13.82;100.00;95681.19;4987399;28;20187;-80
2022/09/11 02:06:08;;;;;;;7.22;5.20;;;;;;;13.82;100.00;95678.59;4978410;28;20738;-82
2022/09/11 02:08:43;;;;;;;4.90;4.40;;;;;;;13.79;100.00;95680.72;4991630;28;20961;-82
2022/09/11 02:11:10;;;;;;;6.10;4.72;;;;;;;13.76;100.00;95684.44;4978148;28;20195;-82
2022/09/11 02:13:48;;;;;;;7.33;4.70;;;;;;;13.83;100.00;95682.00;4980079;28;20194;-80
2022/09/11 02:16:21;;;;;;;7.38;4.95;;;;;;;13.84;100.00;95681.03;4989772;28;20197;-81
2022/09/11 02:18:50;;;;;;;8.77;5.47;;;;;;;13.77;100.00;95680.03;4986652;28;20195;-81
2022/09/11 02:21:15;;;;;;;7.53;5.20;;;;;;;13.70;100.00;95679.09;4975167;28;20288;-80
2022/09/11 02:23:41;;;;;;;8.90;5.67;;;;;;;13.71;100.00;95683.34;4993605;28;20599;-81
2022/09/11 02:26:08;;;;;;;7.60;4.93;;;;;;;13.78;100.00;95686.91;4979649;28;20701;-82
2022/09/11 02:28:33;;;;;;;7.33;6.03;;;;;;;13.89;100.00;95692.63;4976577;28;20564;-82
2022/09/11 02:31:01;;;;;;;8.18;6.20;;;;;;;13.77;100.00;95690.50;4983738;28;20194;-81
2022/09/11 02:33:31;;;;;;;7.27;5.67;;;;;;;13.73;100.00;95679.56;4985530;28;20191;-80
2022/09/11 02:36:11;;;;;;;10.52;7.03;;;;;;;13.74;100.00;95691.63;4978237;28;20206;-82
2022/09/11 02:38:47;;;;;;;10.20;7.07;;;;;;;13.71;100.00;95696.38;4976637;28;20249;-80
2022/09/11 02:41:19;;;;;;;11.00;7.60;;;;;;;13.74;100.00;95699.47;4979994;28;20202;-81
2022/09/11 02:43:59;;;;;;;11.43;7.37;;;;;;;13.72;100.00;95695.41;4990529;28;20194;-80
2022/09/11 02:46:33;;;;;;;7.63;6.93;;;;;;;13.73;100.00;95695.22;4988173;28;20199;-81
2022/09/11 02:49:08;;;;;;;8.93;7.00;;;;;;;13.72;100.00;95698.81;4988258;28;20221;-80
2022/09/11 02:51:40;;;;;;;9.80;7.20;;;;;;;13.77;100.00;95706.16;4964495;28;20190;-81
2022/09/11 02:54:17;;;;;;;10.32;8.15;;;;;;;13.78;100.00;95703.41;4976994;28;20239;-80
2022/09/11 02:56:46;;;;;;;10.02;7.20;;;;;;;13.74;100.00;95699.47;4978890;28;20595;-80
2022/09/11 02:59:23;;;;;;;9.35;7.72;;;;;;;13.78;100.00;95708.63;4989702;28;20261;-82
2022/09/11 03:01:52;;;;;;;8.25;7.22;;;;;;;13.78;100.00;95716.44;4987665;28;20183;-81
2022/09/11 03:04:18;;;;;;;10.02;7.25;;;;;;;13.77;100.00;95713.97;4972385;28;20214;-81
2022/09/11 03:06:44;;;;;;;8.95;6.93;;;;;;;13.84;100.00;95707.94;4991863;28;20277;-81
2022/09/11 03:09:09;;;;;;;8.13;6.70;;;;;;;13.85;100.00;95706.97;4979017;28;20314;-81
2022/09/11 03:11:35;;;;;;;13.05;8.38;;;;;;;13.79;100.00;95714.66;4978597;28;20226;-81
2022/09/11 03:14:00;;;;;;;9.20;8.38;;;;;;;13.83;100.00;95713.34;4975570;28;20195;-80
2022/09/11 03:16:25;;;;;;;10.18;7.88;;;;;;;13.87;100.00;95715.47;4987146;28;20214;-80
2022/09/11 03:18:51;;;;;;;9.95;8.45;;;;;;;13.82;100.00;95717.75;4977296;28;20198;-81
2022/09/11 03:21:16;;;;;;;12.50;8.98;;;;;;;13.77;100.00;95722.63;4991766;28;20191;-79
2022/09/11 03:23:42;;;;;;;8.88;8.00;;;;;;;13.80;100.00;95721.50;4993853;28;20221;-81
2022/09/11 03:26:07;;;;;;;11.32;8.50;;;;;;;13.75;100.00;95714.16;4976261;28;20192;-82
2022/09/11 03:28:33;;;;;;;11.77;8.98;;;;;;;13.89;100.00;95716.13;4992664;28;20212;-81
2022/09/11 03:30:58;;;;;;;11.52;8.35;;;;;;;13.82;100.00;95720.34;4977875;28;20195;-81
2022/09/11 03:33:24;;;;;;;12.68;8.43;;;;;;;13.79;100.00;95725.91;4984325;28;20233;-80
2022/09/11 03:35:49;;;;;;;11.00;8.32;;;;;;;13.79;100.00;95723.31;5005457;28;20207;-80
2022/09/11 03:38:14;;;;;;;13.18;8.88;;;;;;;13.78;100.00;95718.22;4998699;28;20202;-79
2022/09/11 03:40:43;;;;;;;10.73;8.25;;;;;;;13.84;100.00;95717.56;4999740;28;20190;-80
2022/09/11 03:43:09;;;;;;;11.85;8.85;;;;;;;13.74;100.00;95722.16;5008736;28;20184;-79
2022/09/11 03:45:34;;;;;;;10.52;9.45;;;;;;;13.71;100.00;95720.69;4995463;28;20223;-81
2022/09/11 03:48:00;;;;;;;9.38;8.40;;;;;;;13.79;100.00;95728.53;4984350;28;20208;-82
2022/09/11 03:50:25;;;;;;;11.18;9.45;;;;;;;13.79;100.00;95730.31;4998478;28;20184;-82
2022/09/11 03:52:50;;;;;;;12.55;9.82;;;;;;;13.74;100.00;95725.56;4978354;28;20184;-82
2022/09/11 03:55:16;;;;;;;12.40;10.02;;;;;;;13.69;100.00;95725.22;4978804;28;20286;-82
2022/09/11 03:57:41;;;;;;;10.57;9.50;;;;;;;13.78;100.00;95726.88;4990659;28;20501;-82
2022/09/11 04:00:07;;;;;;;11.35;9.82;;;;;;;13.75;100.00;95724.59;4979042;28;20238;-81
2022/09/11 04:02:32;;;;;;;10.38;8.30;;;;;;;13.76;100.00;95723.59;4970007;28;20275;-81
2022/09/11 04:04:58;;;;;;;10.90;9.85;;;;;;;13.70;100.00;95728.69;4999174;28;20858;-78
2022/09/11 04:07:23;;;;;;;10.88;8.98;;;;;;;13.72;100.00;95719.69;5005502;28;20194;-80
2022/09/11 04:09:49;;;;;;;9.50;8.07;;;;;;;13.71;100.00;95718.06;5000117;28;20187;-78
2022/09/11 04:12:15;;;;;;;11.45;9.30;;;;;;;13.72;100.00;95716.28;5001012;28;20210;-80
2022/09/11 04:14:40;;;;;;;9.25;8.35;;;;;;;13.77;100.00;95721.81;4982578;28;20196;-82
2022/09/11 04:17:07;;;;;;;10.32;9.32;;;;;;;13.70;100.00;95713.84;4979196;28;20229;-81
2022/09/11 04:19:32;;;;;;;10.32;9.38;;;;;;;13.68;100.00;95728.00;4993462;28;20270;-80
2022/09/11 04:21:58;;;;;;;12.77;9.65;;;;;;;13.69;100.00;95721.81;4979360;28;20229;-81
2022/09/11 04:24:23;;;;;;;10.73;9.68;;;;;;;13.66;100.00;95730.78;4993621;28;20190;-81
2022/09/11 04:26:48;;;;;;;11.73;9.50;;;;;;;13.62;100.00;95728.66;4981832;28;20706;-81
2022/09/11 04:29:16;;;;;;;9.60;8.65;;;;;;;13.61;100.00;95725.25;4981745;28;20209;-81
2022/09/11 04:31:42;;;;;;;10.77;9.40;;;;;;;13.59;100.00;95730.59;4981979;28;20218;-82
2022/09/11 04:34:08;;;;;;;10.98;9.90;;;;;;;13.57;100.00;95721.31;4982563;28;20607;-79
2022/09/11 04:36:34;;;;;;;12.18;9.70;;;;;;;13.50;100.00;95726.34;4979906;28;20605;-83
2022/09/11 04:38:59;;;;;;;11.95;10.68;;;;;;;13.48;100.00;95736.13;4983045;28;20239;-81
2022/09/11 04:41:25;;;;;;;12.00;9.90;;;;;;;13.57;100.00;95731.75;4980443;28;20250;-80
2022/09/11 04:43:55;;;;;;;10.65;9.25;;;;;;;13.51;100.00;95740.22;4988466;28;20179;-82
2022/09/11 04:46:21;;;;;;;12.25;9.68;;;;;;;13.50;100.00;95741.19;4992397;28;20211;-81
2022/09/11 04:48:47;;;;;;;11.02;9.88;;;;;;;13.49;100.00;95747.38;4982097;28;20231;-80
2022/09/11 04:51:21;;;;;;;11.73;10.53;;;;;;;13.52;100.00;95750.50;4981428;28;20191;-82
2022/09/11 04:53:47;;;;;;;12.70;9.98;;;;;;;13.48;100.00;95749.19;4977938;28;20279;-81
2022/09/11 04:56:12;;;;;;;10.30;9.27;;;;;;;13.40;100.00;95751.78;4980667;28;20187;-82
2022/09/11 04:58:38;;;;;;;13.43;10.43;;;;;;;13.48;100.00;95754.41;4979278;28;20204;-79
2022/09/11 05:01:12;;;;;;;12.07;9.50;;;;;;;13.50;100.00;95762.88;4984658;28;20180;-82
2022/09/11 05:03:38;;;;;;;13.02;10.50;;;;;;;13.48;100.00;95769.25;4979541;28;20176;-80
2022/09/11 05:06:07;;;;;;;11.85;10.60;;;;;;;13.51;100.00;95771.53;4977632;28;20523;-82
2022/09/11 05:08:33;;;;;;;11.25;9.77;;;;;;;13.53;100.00;95773.00;4978124;28;20215;-81
2022/09/11 05:10:59;;;;;;;11.30;9.90;;;;;;;13.48;100.00;95777.06;4968081;28;20275;-81
2022/09/11 05:13:25;;;;;;;13.35;10.82;;;;;;;13.52;100.00;95775.78;4971364;28;20227;-81
2022/09/11 05:15:51;;;;;;;13.18;11.20;;;;;;;13.52;100.00;95778.41;4986655;28;20180;-82
2022/09/11 05:18:16;;;;;;;11.40;10.15;;;;;;;13.66;100.00;95776.94;4980953;28;20591;-79
2022/09/11 05:20:42;;;;;;;11.93;10.77;;;;;;;13.70;100.00;95779.06;5005241;28;20191;-78
2022/09/11 05:23:10;;;;;;;12.52;11.30;;;;;;;13.68;100.00;95781.00;5000351;28;20195;-81
2022/09/11 05:25:35;;;;;;;12.30;11.07;;;;;;;13.77;100.00;95780.03;4975123;28;20224;-81
2022/09/11 05:28:01;;;;;;;14.47;10.63;;;;;;;13.84;100.00;95785.44;4980925;28;20570;-80
2022/09/11 05:30:27;;;;;;;13.77;12.35;;;;;;;13.86;100.00;95791.31;4985324;28;20215;-80
2022/09/11 05:32:56;;;;;;;13.25;11.02;;;;;;;13.87;100.00;95791.16;4981877;28;20633;-82
2022/09/11 05:35:25;;;;;;;14.80;11.68;;;;;;;13.77;100.00;95793.09;4978581;28;20180;-81
2022/09/11 05:37:50;;;;;;;14.20;11.40;;;;;;;13.79;100.00;95796.38;4979843;28;20277;-82
2022/09/11 05:40:15;;;;;;;12.30;11.10;;;;;;;13.85;100.00;95795.72;4980893;28;20183;-82
2022/09/11 05:42:41;;;;;;;14.95;11.15;;;;;;;13.87;100.00;95792.97;4989225;28;20274;-82
2022/09/11 05:45:06;;;;;;;12.30;10.90;;;;;;;13.96;100.00;95798.97;4989566;28;20600;-82
2022/09/11 05:47:32;;;;;;;15.27;10.97;;;;;;;13.93;100.00;95802.75;5013508;28;20215;-81
2022/09/11 05:49:59;;;;;;;12.75;11.55;;;;;;;13.93;100.00;95799.31;4997096;28;20222;-82
2022/09/11 05:52:24;;;;;;;13.40;11.45;;;;;;;13.87;100.00;95809.44;4982369;28;20192;-81
2022/09/11 05:54:50;;;;;;;13.15;11.85;;;;;;;14.01;100.00;95805.38;4985704;28;20195;-81
2022/09/11 05:57:16;;;;;;;14.20;10.93;;;;;;;14.03;100.00;95815.63;4989089;28;20207;-80
2022/09/11 05:59:41;;;;;;;12.05;10.52;;;;;;;14.03;100.00;95813.84;4992454;28;20202;-81
2022/09/11 06:02:09;;;;;;;11.82;10.63;;;;;;;14.11;100.00;95813.84;4979978;28;20274;-82
2022/09/11 06:04:34;;;;;;;15.27;11.40;;;;;;;14.10;100.00;95811.41;4979203;28;20198;-80
2022/09/11 06:07:00;;;;;;;11.48;10.27;;;;;;;14.12;100.00;95822.50;4978992;28;20212;-80
2022/09/11 06:09:25;;;;;;;11.43;10.07;;;;;;;14.22;99.77;95830.16;4977979;28;20258;-80
2022/09/11 06:11:51;;;;;;;12.23;10.85;;;;;;;14.18;99.44;95838.34;4979086;28;20191;-81
2022/09/11 06:14:17;;;;;;;13.70;10.57;;;;;;;14.21;99.59;95839.81;4978993;28;20260;-80
2022/09/11 06:16:42;;;;;;;12.02;9.25;;;;;;;14.30;99.15;95843.25;4982194;28;20212;-80
2022/09/11 06:19:07;;;;;;;10.57;9.57;;;;;;;14.35;99.20;95847.00;4975083;28;20187;-81
2022/09/11 06:21:33;;;;;;;13.27;10.88;;;;;;;14.34;98.58;95847.16;4982647;28;20207;-82
2022/09/11 06:23:58;;;;;;;12.13;10.93;;;;;;;14.37;98.71;95849.44;5002695;28;20602;-82
2022/09/11 06:26:25;;;;;;;11.30;10.27;;;;;;;14.32;99.00;95852.56;4995819;28;20278;-83
2022/09/11 06:28:51;;;;;;;12.48;10.63;;;;;;;14.38;98.57;95851.88;4992714;28;20679;-84
2022/09/11 06:31:18;;;;;;;10.35;9.32;;;;;;;14.47;98.35;95854.53;4979707;28;20615;-83
2022/09/11 06:33:45;;;;;;;11.88;9.10;;;;;;;14.50;98.12;95851.63;4986627;28;20179;-83
2022/09/11 06:36:12;;;;;;;14.43;10.68;;;;;;;14.44;98.39;95860.88;4992442;28;20202;-83
2022/09/11 06:38:38;;;;;;;10.68;9.68;;;;;;;14.48;98.20;95853.56;4978202;28;20211;-82
2022/09/11 06:41:05;;;;;;;11.30;9.85;;;;;;;14.55;98.04;95852.75;4971829;28;20302;-83
2022/09/11 06:43:31;;;;;;;12.45;10.98;;;;;;;14.56;97.96;95856.16;4998130;28;20218;-83
2022/09/11 06:46:09;;;;;;;11.75;10.02;;;;;;;14.75;97.13;95858.44;4977948;28;20628;-83
2022/09/11 06:48:34;;;;;;;11.15;9.60;;;;;;;14.77;96.93;95858.28;4976692;28;20582;-83
2022/09/11 06:51:03;;;;;;;10.30;9.20;;;;;;;14.88;96.52;95869.19;4978087;28;20188;-83
2022/09/11 06:53:29;;;;;;;10.43;9.30;;;;;;;14.88;96.12;95858.75;4987860;28;20192;-83
2022/09/11 06:56:05;;;;;;;11.68;9.15;;;;;;;14.93;95.20;95855.63;4978391;28;20293;-80
2022/09/11 06:58:31;;;;;;;9.85;8.85;;;;;;;14.97;94.42;95867.38;4998825;28;20655;-83
2022/09/11 07:01:08;;;;;;;9.45;8.60;;;;;;;15.14;94.10;95862.94;4977883;28;20188;-84
2022/09/11 07:03:33;;;;;;;10.55;9.63;;;;;;;15.20;93.78;95857.03;4961943;28;20195;-79
2022/09/11 07:05:59;;;;;;;10.82;8.48;;;;;;;15.31;93.89;95867.13;4967569;28;20253;-80
2022/09/11 07:08:25;;;;;;;11.20;8.45;;;;;;;15.42;92.54;95863.34;4978528;28;20203;-81
2022/09/11 07:10:51;;;;;;;9.43;8.52;;;;;;;15.58;92.27;95865.88;4992128;28;20322;-82
2022/09/11 07:13:16;;;;;;;12.15;8.90;;;;;;;15.59;90.85;95867.50;4994528;28;20234;-83
2022/09/11 07:15:42;;;;;;;8.95;8.05;;;;;;;15.68;91.10;95874.38;4988407;28;20284;-83
2022/09/11 07:18:07;;;;;;;8.77;7.97;;;;;;;15.53;90.81;95874.22;4978000;28;20222;-82
2022/09/11 07:20:33;;;;;;;9.95;8.38;;;;;;;15.67;90.33;95875.38;4982245;28;20206;-79
2022/09/11 07:22:58;;;;;;;10.50;8.77;;;;;;;15.69;90.13;95878.63;4987451;28;20196;-82
2022/09/11 07:25:24;;;;;;;9.45;7.90;;;;;;;15.96;89.15;95879.94;4998551;28;20242;-83
2022/09/11 07:27:50;;;;;;;11.68;8.40;;;;;;;15.87;89.09;95878.38;4991381;28;20293;-81
2022/09/11 07:30:16;;;;;;;12.60;8.40;;;;;;;15.93;89.38;95877.69;5011665;28;20550;-82
2022/09/11 07:32:48;;;;;;;8.43;7.65;;;;;;;16.09;87.96;95874.16;4973172;28;20190;-84
2022/09/11 07:35:36;;;;;;;8.60;7.68;;;;;;;16.25;87.55;95884.50;4981407;28;20187;-85
2022/09/11 07:38:09;;;;;;;7.90;6.93;;;;;;;16.24;86.73;95882.88;5010914;28;20227;-84
2022/09/11 07:40:42;;;;;;;8.80;8.00;;;;;;;16.16;87.44;95885.53;4987743;28;20215;-85
2022/09/11 07:43:23;;;;;;;8.65;7.82;;;;;;;16.27;86.74;95889.59;4975277;28;20326;-84
2022/09/11 07:46:13;;;;;;;10.18;8.10;;;;;;;16.53;85.91;95890.06;4977851;28;20198;-86
2022/09/11 07:49:02;;;;;;;9.65;8.70;;;;;;;16.37;85.51;95898.84;4995381;28;20310;-85
2022/09/11 07:51:51;;;;;;;8.60;7.72;;;;;;;16.63;85.45;95903.75;4967968;28;20195;-83
2022/09/11 07:54:49;;;;;;;9.05;7.43;;;;;;;17.06;83.57;95909.28;4970541;28;20192;-85
2022/09/11 08:11:44;;;;;;;8.55;7.80;;;;;;;17.47;79.19;95904.41;5086121;23;20238;-82
2022/09/11 08:14:12;;;;;;;8.38;7.57;;;;;;;17.59;78.78;95903.97;5012926;28;20718;-81
2022/09/11 08:16:38;;;;;;;8.70;7.63;;;;;;;17.67;78.50;95898.59;5014683;28;20185;-83
2022/09/11 08:19:04;;;;;;;8.23;7.40;;;;;;;17.71;77.30;95905.97;4998370;28;20175;-84
2022/09/11 08:21:29;;;;;;;7.63;6.85;;;;;;;17.61;78.55;95900.16;4999225;28;20623;-83
2022/09/11 08:23:55;;;;;;;8.23;7.13;;;;;;;17.64;78.09;95912.91;4987122;28;20189;-82
2022/09/11 08:26:22;;;;;;;7.97;7.18;;;;;;;17.59;76.45;95911.84;4987979;28;20197;-81
2022/09/11 08:28:49;;;;;;;8.63;7.60;;;;;;;17.87;76.16;95912.84;5002685;28;20206;-82
2022/09/11 08:31:16;;;;;;;8.45;7.38;;;;;;;18.09;75.17;95922.41;5014632;28;20183;-82
2022/09/11 08:33:42;;;;;;;8.38;6.88;;;;;;;17.61;77.42;95915.13;4995463;28;20190;-83
2022/09/11 08:36:09;;;;;;;8.70;7.90;;;;;;;17.61;77.38;95923.81;4996042;28;20240;-81
2022/09/11 08:38:36;;;;;;;9.75;7.35;;;;;;;17.60;77.11;95922.19;5013951;28;20229;-85
2022/09/11 08:41:19;;;;;;;8.40;6.80;;;;;;;17.75;76.64;95923.00;5000824;28;20252;-78
2022/09/11 08:43:51;;;;;;;8.80;7.88;;;;;;;17.49;76.95;95922.59;5017230;28;20193;-80
2022/09/11 08:46:18;;;;;;;8.40;7.60;;;;;;;17.38;76.59;95920.44;5016998;28;20183;-79
2022/09/11 08:49:16;;;;;;;9.02;8.02;;;;;;;17.41;77.03;95925.34;4998217;28;20203;-78
2022/09/11 08:51:43;;;;;;;9.20;8.20;;;;;;;17.38;76.69;95923.06;4989636;28;20201;-82
2022/09/11 08:54:20;;;;;;;9.43;8.52;;;;;;;17.47;76.91;95933.28;4999456;28;20639;-81
2022/09/11 08:56:47;;;;;;;9.70;8.55;;;;;;;17.51;76.99;95939.03;4985728;28;20210;-83
2022/09/11 08:59:56;;;;;;;9.80;7.95;;;;;;;17.51;76.40;95939.84;5004170;28;20209;-83
2022/09/11 09:02:37;;;;;;;9.20;8.30;;;;;;;17.77;76.50;95933.34;4915817;29;20201;-82
2022/09/11 09:05:14;;;;;;;9.25;8.45;;;;;;;17.94;74.40;95936.59;4923172;29;20550;-81
2022/09/11 09:07:46;;;;;;;9.25;8.27;;;;;;;18.12;72.70;95939.63;4905781;29;20225;-80
2022/09/11 09:10:27;;;;;;;9.05;8.18;;;;;;;18.24;73.21;95938.13;4888131;29;20205;-83
2022/09/11 09:13:08;;;;;;;11.07;9.23;;;;;;;18.16;73.39;95940.88;4914158;29;20198;-82
2022/09/11 09:15:40;;;;;;;10.52;9.43;;;;;;;18.05;72.44;95946.63;4905603;29;21104;-82
2022/09/11 09:18:11;;;;;;;9.82;8.82;;;;;;;17.98;72.47;95951.78;4909240;29;20216;-81
2022/09/11 09:20:39;;;;;;;11.18;9.18;;;;;;;17.96;73.56;95950.34;4908830;29;20198;-82
2022/09/11 09:23:27;;;;;;;10.20;8.98;;;;;;;18.02;73.20;95954.84;4912052;29;20213;-82
2022/09/11 09:25:54;;;;;;;10.40;9.50;;;;;;;18.28;71.29;95957.78;4898594;29;20216;-83
2022/09/11 09:28:24;;;;;;;9.90;9.00;;;;;;;18.47;70.65;95966.91;4916140;29;20701;-81
2022/09/11 09:30:58;;;;;;;20.70;9.05;;;;;;;18.65;69.22;95954.19;4919593;29;20202;-80
2022/09/11 09:33:34;;;;;;;15.32;8.60;;;;;;;19.01;69.09;95952.47;4972178;28;20203;-80
2022/09/11 09:36:12;;;;;;;11.68;8.88;;;;;;;19.27;67.22;95949.22;5004418;28;20187;-81
2022/09/11 09:38:38;;;;;;;10.27;8.43;;;;;;;18.91;68.26;95953.59;4997480;28;20273;-82
2022/09/11 09:41:26;;;;;;;8.80;8.05;;;;;;;18.77;68.80;95951.03;5007261;28;20671;-80
2022/09/11 09:44:16;;;;;;;9.60;7.97;;;;;;;18.29;69.68;95953.38;4993854;28;20207;-78
2022/09/11 09:46:43;;;;;;;9.02;8.27;;;;;;;18.16;70.33;95954.00;5045899;28;20215;-78
2022/09/11 09:49:10;;;;;;;9.95;9.05;;;;;;;17.71;71.87;95961.13;5041185;28;20213;-81
2022/09/11 09:51:36;;;;;;;10.05;8.43;;;;;;;17.76;71.74;95950.09;5033314;28;20187;-79
2022/09/11 09:54:01;;;;;;;10.35;9.38;;;;;;;17.59;72.18;95957.31;4998706;28;20199;-80
2022/09/11 09:56:29;;;;;;;10.25;8.85;;;;;;;17.47;72.18;95953.47;5020506;28;20178;-81
2022/09/11 09:59:07;;;;;;;9.45;8.55;;;;;;;17.52;72.13;95959.84;5022302;28;20167;-79
2022/09/11 10:01:51;;;;;;;8.48;7.57;;;;;;;17.83;71.38;95961.47;5045223;28;20182;-79
2022/09/11 10:04:17;;;;;;;7.85;7.18;;;;;;;18.11;71.16;95956.41;4989092;28;21028;-80
2022/09/11 10:06:44;;;;;;;8.93;7.65;;;;;;;18.46;70.49;95953.94;4987337;28;20214;-82
2022/09/11 10:09:21;;;;;;;8.13;7.43;;;;;;;18.60;69.35;95951.25;5007764;28;20669;-81
2022/09/11 10:11:51;;;;;;;9.13;7.15;;;;;;;18.77;67.91;95948.41;4997504;28;20273;-82
2022/09/11 10:14:20;;;;;;;10.05;7.85;;;;;;;19.12;66.96;95950.13;4997116;28;20188;-81
2022/09/11 10:16:49;;;;;;;9.98;7.57;;;;;;;19.02;67.30;95948.84;4997360;28;20274;-80
2022/09/11 10:19:34;;;;;;;8.02;7.22;;;;;;;18.81;66.14;95942.56;5006866;28;20222;-81
2022/09/11 10:22:21;;;;;;;10.32;6.65;;;;;;;18.55;68.46;95944.91;5002755;28;20194;-82
2022/09/11 10:25:11;;;;;;;8.05;7.25;;;;;;;18.60;67.50;95942.53;4980840;28;20559;-81
2022/09/11 10:27:42;;;;;;;9.70;8.85;;;;;;;18.68;64.20;95938.00;4997389;28;20215;-83
2022/09/11 10:30:24;;;;;;;8.35;7.35;;;;;;;18.76;64.24;95934.44;5002384;28;20261;-81
2022/09/11 10:32:49;;;;;;;9.00;8.20;;;;;;;18.79;66.38;95938.50;4990919;28;20209;-83
2022/09/11 10:35:17;;;;;;;8.68;7.88;;;;;;;19.05;63.65;95933.47;4987975;28;20194;-82
2022/09/11 10:37:42;;;;;;;7.68;7.07;;;;;;;19.31;62.53;95935.47;5000595;28;20254;-82
2022/09/11 10:40:19;;;;;;;7.28;6.65;;;;;;;19.75;62.55;95937.78;4997353;28;20269;-81
2022/09/11 10:42:50;;;;;;;7.15;6.55;;;;;;;19.82;61.60;95935.19;4993169;28;20187;-81
2022/09/11 10:45:17;;;;;;;8.27;7.47;;;;;;;20.02;62.00;95937.91;4976929;28;20268;-82
2022/09/11 10:47:44;;;;;;;6.13;5.63;;;;;;;19.83;61.36;95930.75;5005258;28;20218;-82
2022/09/11 10:50:19;;;;;;;5.47;4.97;;;;;;;19.81;60.77;95938.84;4989268;28;20803;-81
2022/09/11 10:52:56;;;;;;;5.93;5.30;;;;;;;19.68;61.74;95938.75;5034821;28;20666;-82
2022/09/11 10:55:23;;;;;;;6.45;5.93;;;;;;;19.23;62.69;95939.06;4995132;28;20678;-80
2022/09/11 10:57:58;;;;;;;8.73;6.30;;;;;;;19.22;62.17;95932.16;4998810;28;20206;-82
2022/09/11 11:00:26;;;;;;;6.40;5.90;;;;;;;19.56;60.27;95940.28;4992548;28;20195;-83
2022/09/11 11:03:20;;;;;;;7.53;6.13;;;;;;;19.73;59.78;95939.81;4998057;28;20188;-81
2022/09/11 11:05:51;;;;;;;6.00;5.40;;;;;;;20.22;57.76;95938.78;4989977;28;20254;-82
2022/09/11 11:08:56;;;;;;;8.98;5.72;;;;;;;20.80;56.99;95933.06;5016123;28;20218;-83
2022/09/11 11:11:44;;;;;;;6.53;5.60;;;;;;;20.75;56.18;95927.56;5012468;28;20265;-82
2022/09/11 11:14:39;;;;;;;6.00;5.38;;;;;;;20.68;56.65;95934.69;5008336;28;20944;-83
2022/09/11 11:17:35;;;;;;;6.15;5.65;;;;;;;20.28;55.81;95930.09;5011932;28;20249;-82
2022/09/11 11:20:38;;;;;;;6.18;5.57;;;;;;;20.18;57.64;95932.31;5009393;28;20217;-83
2022/09/11 11:23:32;;;;;;;5.90;5.32;;;;;;;20.12;57.71;95938.34;5031306;28;20178;-82
2022/09/11 11:26:09;;;;;;;5.78;5.20;;;;;;;20.27;57.73;95938.22;4997885;28;20671;-85
2022/09/11 11:28:41;;;;;;;6.43;5.18;;;;;;;20.52;55.76;95938.53;4984466;28;20210;-81
2022/09/11 11:31:26;;;;;;;5.65;5.13;;;;;;;20.55;56.53;95936.28;5003537;28;20201;-80
2022/09/11 11:34:19;;;;;;;6.65;5.18;;;;;;;20.98;56.28;95930.66;4977962;28;20220;-78
2022/09/11 11:37:20;;;;;;;5.05;4.65;;;;;;;21.28;57.14;95927.59;5028446;28;20752;-82
2022/09/11 11:39:52;;;;;;;5.40;4.90;;;;;;;21.09;56.02;95932.66;5026851;28;20195;-83
2022/09/11 11:42:26;;;;;;;5.20;4.70;;;;;;;21.00;55.97;95930.44;5001627;28;20191;-83
2022/09/11 11:44:57;;;;;;;5.20;4.70;;;;;;;20.62;56.28;95939.75;5012580;28;20202;-83
2022/09/11 11:47:25;;;;;;;4.95;4.55;;;;;;;20.68;56.49;95934.69;4994460;28;20221;-83
2022/09/11 11:50:05;;;;;;;4.75;4.35;;;;;;;20.73;54.63;95935.69;5015466;28;20263;-83
2022/09/11 11:52:30;;;;;;;5.30;4.80;;;;;;;20.80;54.11;95935.72;5017609;28;20233;-81
2022/09/11 11:55:17;;;;;;;5.80;5.25;;;;;;;20.58;54.79;95941.19;5036382;28;20197;-84